Aérodrome :
LOGIN :

S'inscrire | Disclaimer

   EN    FR    IT 

 










Légende :    VFR   VFR Marginal   IFR   IFR Intensif   IFR Très Intensif
Visi : 
Plafond : 
>= 8 km
>= 3000ft
5 à 8 km
1000 à 3000 ft
1500m à 5 km
500 à 1000 ft
800 à 1500m
200 à 500 ft
< 800m
< 200 ft
Symboles :   Orages  Brouillard  Fortes neiges  Fortes précipitations  Vent > 20 kt
SIGMETs :   Divers  Orages  Givrage  Turbulence  Onde Orograph.  Cendres Volcan.







- Altitude de l'aérodrome : 935 ft


EBFS - Florennes

DERNIER METAR :
  • 220355Z AUTO 25011KT 2900 DZ OVC003/// 08/07 Q1007 YLO

METARs EXPIRÉS :
  • 220325Z AUTO 25010KT 2800 DZ OVC003/// 07/07 Q1007 YLO
  • 220255Z AUTO 24010KT 2600 DZ BKN003/// 07/06 Q1007 YLO
  • 220241Z AUTO 24009KT 1500 DZ OVC003/// 06/06 Q1007 AMB
  • 220225Z AUTO 23010KT 2400 -DZ OVC003/// 06/05 Q1007 YLO
  • 220155Z AUTO 23011KT 2700 DZ BKN003/// 05/04 Q1007 YLO
  • 220125Z AUTO 23007KT 1700 -DZ OVC002/// 04/04 Q1007 AMB

TAF TAF EBFS
Valide du 21 à 19h jusqu'au 22 à 07h UTC


211543Z 2119/2207 19010KT 4000 -RASN SCT006 BKN007
PROB30
TEMPO 2118/2120 1200 SN SCT002 OVC003
BECMG 2120/2122 3000 BR -RA BKN003 OVC005
BECMG 2201/2203 26008KT 2500 BR -DZ SCT002 OVC003
PROB30
TEMPO 2203/2207 600 FG -DZ SCT001 OVC002
Pas de NOTAMs connus pour ce terrain.



MET'MAP, la Météo Aéronautique d'un coup d'oeil ! - Copyright ORBIFLY Décembre 2007 - Disclaimer

ORBIFLY MET'MAP TEAM :

Programmation & Développement : Alexandra Zaïnal
Conception & Développement : Baudouin d'Aumeries
Co-Programmation & Développement : Marc-Olivier Méhu
Soutien technique & logistique : Manuel Goepfert

Contact : metmap@orbifly.com




SOURCES & CREDITS :

   NOAA